Time;durP1;ratioP1;P1;durP2;ratioP2;P2;SDS_P1;SDS_P2;PMS_P1;PMS_P2;Temp;Humidity;BMP_temperature;BMP_pressure;BME280_temperature;BME280_humidity;BME280_pressure;Samples;Min_cycle;Max_cycle;Signal;HPM_P1;HPM_P2
2024/01/17 00:00:09;;;;;;;6.40;4.33;;;0.80;63.90;-1.40;95098.00;;;;5069683;28;20515;-77
2024/01/17 00:02:36;;;;;;;4.60;4.20;;;0.80;63.90;-1.40;95084.00;;;;5069297;28;20439;-75
2024/01/17 00:05:04;;;;;;;6.13;4.97;;;0.80;64.00;-1.40;95083.00;;;;5071215;28;20471;-74
2024/01/17 00:07:31;;;;;;;9.40;4.80;;;0.80;64.10;-1.40;95092.00;;;;5070003;28;20449;-75
2024/01/17 00:09:58;;;;;;;9.10;5.30;;;0.80;64.10;-1.40;95080.00;;;;5070402;28;20490;-75
2024/01/17 00:12:25;;;;;;;9.17;6.03;;;0.80;64.10;-1.40;95085.00;;;;5069012;28;20525;-75
2024/01/17 00:14:53;;;;;;;10.50;5.93;;;0.80;64.40;-1.40;95093.00;;;;5067689;28;21039;-75
2024/01/17 00:17:21;;;;;;;8.17;4.93;;;0.70;64.40;-1.40;95092.00;;;;5069324;28;20438;-75
2024/01/17 00:19:50;;;;;;;8.63;5.57;;;0.80;64.60;-1.40;95101.00;;;;5076785;28;20465;-75
2024/01/17 00:22:18;;;;;;;9.87;5.30;;;0.80;64.70;-1.40;95096.00;;;;5069123;28;20541;-75
2024/01/17 00:24:48;;;;;;;11.27;5.73;;;0.80;64.70;-1.30;95093.00;;;;5076894;28;20445;-75
2024/01/17 00:27:18;;;;;;;7.50;5.30;;;0.80;64.80;-1.30;95080.00;;;;5070790;28;20446;-75
2024/01/17 00:29:45;;;;;;;8.37;4.73;;;0.80;64.80;-1.20;95065.00;;;;5069720;28;21044;-75
2024/01/17 00:32:13;;;;;;;5.93;5.30;;;0.80;65.70;-1.20;95064.00;;;;5074180;28;20434;-75
2024/01/17 00:34:42;;;;;;;8.70;4.80;;;0.90;64.90;-1.20;95056.00;;;;5069482;28;20800;-75
2024/01/17 00:37:09;;;;;;;7.60;5.20;;;0.90;64.90;-1.20;95061.00;;;;5068809;28;20438;-75
2024/01/17 00:39:37;;;;;;;5.73;4.60;;;1.00;65.10;-1.10;95050.00;;;;5069025;28;20454;-75
2024/01/17 00:42:06;;;;;;;6.47;4.80;;;1.00;65.10;-1.10;95056.00;;;;5069222;28;20450;-75
2024/01/17 00:44:33;;;;;;;5.37;4.30;;;1.00;65.20;-1.00;95063.00;;;;5070137;28;20457;-75
2024/01/17 00:47:01;;;;;;;5.47;4.70;;;1.00;65.20;-1.00;95056.00;;;;5073989;28;20441;-75
2024/01/17 00:49:28;;;;;;;4.60;3.90;;;1.10;65.30;-1.00;95043.00;;;;5074211;28;20486;-75
2024/01/17 00:51:57;;;;;;;5.37;4.50;;;1.10;65.30;-0.90;95047.00;;;;5074631;28;20462;-75
2024/01/17 00:54:24;;;;;;;6.10;4.53;;;1.20;65.30;-0.90;95045.00;;;;5076670;28;20461;-75
2024/01/17 00:56:51;;;;;;;4.90;3.87;;;1.20;65.30;-0.80;95052.00;;;;5073842;28;20481;-75
2024/01/17 00:59:18;;;;;;;6.17;4.30;;;1.20;65.30;-0.80;95047.00;;;;5071456;28;20537;-75
2024/01/17 01:01:45;;;;;;;4.90;4.07;;;1.30;65.40;-0.70;95036.00;;;;5070892;28;20503;-75
2024/01/17 01:04:12;;;;;;;6.17;4.70;;;1.30;65.40;-0.70;95036.00;;;;5072303;28;20462;-75
2024/01/17 01:06:40;;;;;;;5.27;4.03;;;1.40;65.50;-0.60;95029.00;;;;5072437;28;20858;-75
2024/01/17 01:09:09;;;;;;;4.60;4.10;;;1.40;65.40;-0.60;95040.00;;;;5070929;28;20564;-75
2024/01/17 01:11:38;;;;;;;5.83;3.90;;;1.50;65.40;-0.50;95030.00;;;;5070565;28;20441;-75
2024/01/17 01:14:06;;;;;;;5.17;4.53;;;1.50;65.30;-0.40;95039.00;;;;5055932;28;21069;-75
2024/01/17 01:16:33;;;;;;;4.87;3.60;;;1.60;65.20;-0.40;95040.00;;;;5073722;28;20474;-75
2024/01/17 01:19:00;;;;;;;5.80;4.90;;;1.60;65.20;-0.30;95031.00;;;;5072906;28;20497;-75
2024/01/17 01:21:27;;;;;;;4.60;4.07;;;1.70;65.20;-0.30;95033.00;;;;5057886;28;20446;-75
2024/01/17 01:23:55;;;;;;;6.13;3.97;;;1.70;65.00;-0.20;95027.00;;;;5074145;28;20461;-75
2024/01/17 01:26:24;;;;;;;5.40;4.00;;;1.80;65.00;-0.20;95024.00;;;;5073993;28;20442;-76
2024/01/17 01:28:52;;;;;;;4.93;4.13;;;1.90;64.90;-0.20;95014.00;;;;5065681;28;20982;-75
2024/01/17 01:31:19;;;;;;;5.03;4.23;;;1.80;64.80;-0.10;95019.00;;;;5072440;28;20533;-75
2024/01/17 01:33:47;;;;;;;4.20;3.80;;;1.90;64.80;-0.10;95012.00;;;;5072483;28;20439;-75
2024/01/17 01:36:15;;;;;;;4.10;3.77;;;1.90;64.80;-0.10;95009.00;;;;5066969;28;20559;-75
2024/01/17 01:38:42;;;;;;;5.43;4.70;;;1.90;64.70;-0.10;95001.00;;;;5072705;28;20504;-75
2024/01/17 01:41:09;;;;;;;5.30;4.00;;;1.90;64.70;-0.10;95006.00;;;;5071847;28;20469;-75
2024/01/17 01:43:38;;;;;;;4.30;3.90;;;2.00;64.70;0.00;95009.00;;;;5072468;28;20458;-75
2024/01/17 01:46:17;;;;;;;5.43;4.10;;;2.00;64.70;0.00;95006.00;;;;5071476;28;20512;-75
2024/01/17 01:48:45;;;;;;;4.77;4.27;;;2.00;64.60;0.00;95001.00;;;;5070254;28;21091;-75
2024/01/17 01:51:14;;;;;;;5.57;4.37;;;2.00;64.70;0.00;94998.00;;;;5074777;28;20469;-75
2024/01/17 01:53:45;;;;;;;5.27;3.80;;;2.10;64.60;0.10;95000.00;;;;5073489;28;20430;-75
2024/01/17 01:56:16;;;;;;;6.20;4.27;;;2.10;64.50;0.10;94988.00;;;;5071564;28;20466;-76
2024/01/17 01:58:49;;;;;;;5.23;3.53;;;2.10;64.50;0.10;95001.00;;;;5072985;28;20509;-75
2024/01/17 02:01:18;;;;;;;5.00;4.17;;;2.20;64.50;0.20;94993.00;;;;5073071;28;20477;-75
2024/01/17 02:03:48;;;;;;;4.40;3.97;;;2.20;64.40;0.20;94990.00;;;;5072143;28;20523;-75
2024/01/17 02:06:19;;;;;;;4.67;3.60;;;2.20;64.50;0.20;94988.00;;;;5069262;28;20449;-75
2024/01/17 02:08:47;;;;;;;5.30;4.23;;;2.20;64.50;0.20;94981.00;;;;5076026;28;20494;-75
2024/01/17 02:11:14;;;;;;;4.07;3.60;;;2.30;64.60;0.30;94978.00;;;;5070715;28;20470;-75
2024/01/17 02:13:42;;;;;;;4.07;3.30;;;2.30;64.70;0.30;94979.00;;;;5072635;28;20438;-76
2024/01/17 02:16:10;;;;;;;5.63;3.70;;;2.30;64.60;0.30;94968.00;;;;5072058;28;20553;-75
2024/01/17 02:18:38;;;;;;;5.23;4.23;;;2.40;64.60;0.40;94964.00;;;;5071840;28;20549;-76
2024/01/17 02:21:07;;;;;;;4.60;3.67;;;2.40;64.60;0.40;94967.00;;;;5072684;28;21016;-76
2024/01/17 02:23:34;;;;;;;5.13;4.00;;;2.40;64.60;0.40;94960.00;;;;5078941;28;20477;-75
2024/01/17 02:26:02;;;;;;;5.67;4.23;;;2.50;64.70;0.50;94962.00;;;;5071810;28;20504;-76
2024/01/17 02:28:32;;;;;;;5.53;3.90;;;2.50;64.60;0.50;94959.00;;;;5071267;28;20971;-75
2024/01/17 02:31:00;;;;;;;5.90;4.00;;;2.50;64.60;0.50;94951.00;;;;5071658;28;20462;-76
2024/01/17 02:33:28;;;;;;;5.60;4.20;;;2.50;64.70;0.60;94946.00;;;;5071521;28;20512;-76
2024/01/17 02:35:55;;;;;;;5.67;4.03;;;2.60;64.70;0.60;94940.00;;;;5070870;28;20974;-75
2024/01/17 02:38:22;;;;;;;4.93;3.67;;;2.60;64.60;0.60;94939.00;;;;5070249;28;20499;-76
2024/01/17 02:40:49;;;;;;;5.10;3.80;;;2.60;64.60;0.70;94947.00;;;;5070523;28;20521;-75
2024/01/17 02:43:18;;;;;;;4.10;3.70;;;2.70;64.40;0.70;94932.00;;;;5070849;28;20443;-75
2024/01/17 02:45:45;;;;;;;5.00;3.93;;;2.70;64.40;0.70;94922.00;;;;5070622;28;20450;-76
2024/01/17 02:48:13;;;;;;;4.50;3.80;;;2.70;64.50;0.70;94916.00;;;;5071086;28;20504;-75
2024/01/17 02:50:41;;;;;;;4.33;3.77;;;2.70;64.40;0.80;94930.00;;;;5077126;28;20442;-76
2024/01/17 02:53:09;;;;;;;6.17;4.60;;;2.80;64.50;0.80;94929.00;;;;5073718;28;20470;-75
2024/01/17 02:55:38;;;;;;;4.83;4.03;;;2.80;64.60;0.80;94903.00;;;;5068700;28;20563;-76
2024/01/17 02:58:06;;;;;;;4.53;4.13;;;2.80;64.50;0.80;94909.00;;;;5072763;28;20438;-75
2024/01/17 03:00:36;;;;;;;5.60;4.07;;;2.80;64.40;0.80;94917.00;;;;5072206;28;20445;-76
2024/01/17 03:03:05;;;;;;;5.10;3.97;;;2.90;64.30;0.80;94912.00;;;;5070770;28;20430;-75
2024/01/17 03:05:34;;;;;;;5.00;4.47;;;2.90;64.30;0.80;94915.00;;;;5075008;28;20992;-76
2024/01/17 03:08:01;;;;;;;4.30;3.77;;;2.90;65.00;0.90;94911.00;;;;5071683;28;20435;-76
2024/01/17 03:10:28;;;;;;;4.80;3.87;;;2.90;64.40;0.90;94902.00;;;;5069670;28;20505;-75
2024/01/17 03:12:56;;;;;;;5.00;4.50;;;2.90;64.60;0.90;94902.00;;;;5075784;28;20524;-76
2024/01/17 03:15:23;;;;;;;4.10;3.70;;;2.80;64.40;0.90;94886.00;;;;5074391;28;20477;-76
2024/01/17 03:17:52;;;;;;;4.27;3.87;;;2.90;64.40;0.90;94879.00;;;;5063390;28;20535;-76
2024/01/17 03:20:19;;;;;;;4.03;3.70;;;2.90;64.50;1.00;94866.00;;;;5071945;28;20459;-76
2024/01/17 03:22:47;;;;;;;4.47;4.07;;;2.90;64.60;1.00;94856.00;;;;5072339;28;20474;-75
2024/01/17 03:25:16;;;;;;;4.97;4.07;;;2.90;64.60;1.00;94852.00;;;;5071605;28;20442;-76
2024/01/17 03:27:43;;;;;;;5.83;4.30;;;3.00;64.70;1.00;94854.00;;;;5074015;28;20541;-75
2024/01/17 03:30:13;;;;;;;4.57;4.17;;;3.00;64.60;1.00;94853.00;;;;5067208;28;20546;-76
2024/01/17 03:32:40;;;;;;;5.17;4.40;;;3.00;64.70;1.10;94851.00;;;;5072962;28;20527;-76
2024/01/17 03:35:10;;;;;;;5.73;4.40;;;3.10;64.70;1.10;94848.00;;;;5068701;28;20451;-75
2024/01/17 03:37:38;;;;;;;4.53;4.13;;;3.10;64.80;1.20;94841.00;;;;5069608;28;20567;-76
2024/01/17 03:40:07;;;;;;;6.03;4.23;;;3.10;65.00;1.20;94829.00;;;;5069930;28;20451;-76
2024/01/17 03:42:34;;;;;;;5.17;4.30;;;3.10;65.00;1.20;94833.00;;;;5069729;28;20516;-76
2024/01/17 03:45:02;;;;;;;5.77;4.60;;;3.20;65.00;1.20;94838.00;;;;5070217;28;20517;-76
2024/01/17 03:47:29;;;;;;;7.50;4.80;;;3.20;65.00;1.20;94844.00;;;;5074698;28;20537;-76
2024/01/17 03:49:57;;;;;;;4.97;4.40;;;3.20;65.10;1.30;94838.00;;;;5071442;28;20901;-76
2024/01/17 03:52:25;;;;;;;5.33;4.30;;;3.20;65.20;1.30;94831.00;;;;5071734;28;20826;-76
2024/01/17 03:54:52;;;;;;;7.00;4.77;;;3.20;65.30;1.30;94830.00;;;;5067651;28;20474;-76
2024/01/17 03:57:20;;;;;;;5.57;4.10;;;3.30;65.20;1.30;94822.00;;;;5061597;28;20509;-76
2024/01/17 03:59:47;;;;;;;6.40;4.40;;;3.30;65.30;1.30;94808.00;;;;5072839;28;20493;-76
2024/01/17 04:02:14;;;;;;;4.80;4.40;;;3.30;65.40;1.30;94809.00;;;;5075131;28;20480;-76
2024/01/17 04:04:42;;;;;;;5.13;4.60;;;3.30;65.50;1.40;94814.00;;;;5071165;28;20466;-76
2024/01/17 04:07:09;;;;;;;5.27;4.27;;;3.30;65.60;1.40;94803.00;;;;5071579;28;20454;-75
2024/01/17 04:09:39;;;;;;;5.50;4.90;;;3.40;65.80;1.40;94803.00;;;;5070807;28;20454;-75
2024/01/17 04:12:07;;;;;;;5.07;4.57;;;3.40;65.90;1.50;94797.00;;;;5071511;28;20496;-75
2024/01/17 04:14:34;;;;;;;6.27;5.10;;;3.40;66.00;1.50;94806.00;;;;5070907;28;20507;-75
2024/01/17 04:17:02;;;;;;;5.80;4.77;;;3.40;66.00;1.50;94808.00;;;;5071476;28;20476;-77
2024/01/17 04:19:29;;;;;;;5.73;5.20;;;3.50;66.30;1.60;94810.00;;;;5071564;28;20549;-75
2024/01/17 04:21:56;;;;;;;6.50;4.93;;;3.50;67.10;1.60;94805.00;;;;5074188;28;20473;-75
2024/01/17 04:24:24;;;;;;;8.47;5.37;;;3.50;66.10;1.70;94799.00;;;;5076896;28;20457;-76
2024/01/17 04:26:55;;;;;;;5.23;4.60;;;3.60;66.20;1.70;94796.00;;;;5071114;28;21031;-75
2024/01/17 04:29:22;;;;;;;5.40;4.73;;;3.60;66.20;1.70;94801.00;;;;5075308;28;20458;-75
2024/01/17 04:31:50;;;;;;;7.43;4.87;;;3.60;66.30;1.70;94791.00;;;;5071684;28;20570;-76
2024/01/17 04:34:17;;;;;;;5.13;4.43;;;3.70;66.40;1.70;94773.00;;;;5075600;28;20442;-76
2024/01/17 04:36:44;;;;;;;5.20;4.00;;;3.70;66.40;1.80;94776.00;;;;5063156;28;21008;-76
2024/01/17 04:39:11;;;;;;;6.27;5.20;;;3.70;66.30;1.80;94776.00;;;;5070261;28;20549;-76
2024/01/17 04:41:39;;;;;;;5.10;4.60;;;3.70;66.40;1.80;94776.00;;;;5065380;28;20939;-76
2024/01/17 04:44:09;;;;;;;5.10;4.30;;;3.70;66.30;1.90;94765.00;;;;5077446;28;20447;-76
2024/01/17 04:46:38;;;;;;;5.40;4.33;;;3.80;66.40;1.90;94761.00;;;;5065998;28;20450;-76
2024/01/17 04:49:06;;;;;;;5.23;4.33;;;3.80;66.50;1.90;94761.00;;;;5077339;28;20895;-76
2024/01/17 04:51:35;;;;;;;6.73;5.03;;;3.80;66.50;2.00;94755.00;;;;5074690;28;20813;-76
2024/01/17 04:54:02;;;;;;;4.63;4.23;;;3.90;66.60;2.00;94754.00;;;;5074598;28;20282;-76
2024/01/17 04:56:30;;;;;;;5.60;4.80;;;3.90;67.30;2.00;94751.00;;;;5069663;28;20564;-76
2024/01/17 04:58:57;;;;;;;7.07;4.87;;;3.90;66.60;2.00;94752.00;;;;5074361;28;20485;-76
2024/01/17 05:01:26;;;;;;;5.30;4.80;;;3.90;66.60;2.10;94754.00;;;;5071121;28;20473;-76
2024/01/17 05:03:57;;;;;;;5.30;4.80;;;3.90;66.50;2.10;94747.00;;;;5073980;28;20529;-76
2024/01/17 05:06:25;;;;;;;7.40;6.00;;;4.00;66.70;2.10;94749.00;;;;5074776;28;20442;-75
2024/01/17 05:08:56;;;;;;;7.57;5.97;;;4.00;66.70;2.10;94750.00;;;;5071805;28;20497;-76
2024/01/17 05:11:24;;;;;;;7.33;5.93;;;4.00;66.50;2.10;94746.00;;;;5075094;28;20679;-76
2024/01/17 05:13:52;;;;;;;6.80;5.07;;;4.00;66.40;2.20;94750.00;;;;5069070;28;20184;-76
2024/01/17 05:16:22;;;;;;;7.30;5.20;;;4.00;66.60;2.20;94764.00;;;;5073945;28;20204;-76
2024/01/17 05:18:51;;;;;;;8.77;6.43;;;4.10;66.80;2.20;94761.00;;;;5073168;28;20302;-76
2024/01/17 05:21:18;;;;;;;9.20;7.43;;;4.20;66.90;2.20;94767.00;;;;5073961;28;20194;-76
2024/01/17 05:23:46;;;;;;;7.27;6.53;;;4.10;66.90;2.30;94752.00;;;;5072479;28;20637;-76
2024/01/17 05:26:13;;;;;;;5.93;5.33;;;4.20;67.00;2.30;94746.00;;;;5072364;28;20445;-76
2024/01/17 05:28:40;;;;;;;6.70;6.00;;;4.20;66.90;2.30;94736.00;;;;5072029;28;20519;-76
2024/01/17 05:31:07;;;;;;;6.40;5.40;;;4.20;67.00;2.30;94726.00;;;;5075419;28;20274;-76
2024/01/17 05:33:34;;;;;;;6.17;5.57;;;4.20;67.10;2.30;94732.00;;;;5074911;28;20504;-76
2024/01/17 05:36:03;;;;;;;7.63;4.53;;;4.20;67.10;2.30;94721.00;;;;5078753;28;20872;-76
2024/01/17 05:38:31;;;;;;;6.73;4.90;;;4.20;67.20;2.30;94710.00;;;;5073371;28;20299;-76
2024/01/17 05:40:58;;;;;;;7.27;4.67;;;4.20;67.30;2.30;94713.00;;;;5073984;28;20191;-76
2024/01/17 05:43:25;;;;;;;4.40;4.00;;;4.20;67.30;2.30;94703.00;;;;5073650;28;20188;-76
2024/01/17 05:45:57;;;;;;;4.90;4.40;;;4.20;67.30;2.40;94715.00;;;;5073402;28;20471;-76
2024/01/17 05:48:26;;;;;;;5.83;4.70;;;4.30;67.40;2.40;94711.00;;;;5073788;28;20291;-76
2024/01/17 05:50:53;;;;;;;6.03;4.67;;;4.30;67.60;2.40;94716.00;;;;5065981;28;20598;-76
2024/01/17 05:53:22;;;;;;;5.73;5.17;;;4.30;67.70;2.40;94718.00;;;;5076650;28;20849;-76
2024/01/17 05:55:49;;;;;;;5.73;5.00;;;4.20;67.50;2.40;94711.00;;;;5073131;28;20477;-76
2024/01/17 05:58:16;;;;;;;6.93;4.70;;;4.30;67.60;2.40;94708.00;;;;5072836;28;20657;-76
2024/01/17 06:00:43;;;;;;;5.77;5.10;;;4.30;67.70;2.40;94713.00;;;;5065884;28;20251;-76
2024/01/17 06:03:11;;;;;;;5.97;4.73;;;4.30;67.70;2.50;94705.00;;;;5073365;28;20537;-76
2024/01/17 06:05:38;;;;;;;5.40;4.87;;;4.30;67.60;2.50;94701.00;;;;5065811;28;20562;-76
2024/01/17 06:08:06;;;;;;;5.77;4.70;;;4.40;67.70;2.50;94676.00;;;;5074129;28;20485;-76
2024/01/17 06:10:37;;;;;;;5.27;4.73;;;4.40;67.80;2.50;94677.00;;;;5071375;28;20196;-76
2024/01/17 06:13:05;;;;;;;6.70;5.40;;;4.40;67.80;2.50;94675.00;;;;5072926;28;20432;-77
2024/01/17 06:15:33;;;;;;;6.00;5.50;;;4.40;67.70;2.50;94668.00;;;;5070948;28;20198;-76
2024/01/17 06:18:00;;;;;;;5.63;5.13;;;4.40;67.70;2.50;94659.00;;;;5071928;28;20243;-77
2024/01/17 06:20:28;;;;;;;6.80;4.30;;;4.50;67.90;2.60;94657.00;;;;5070929;28;20458;-77
2024/01/17 06:22:55;;;;;;;6.73;5.37;;;4.50;68.10;2.60;94656.00;;;;5072658;28;20218;-77
2024/01/17 06:25:23;;;;;;;6.70;5.53;;;4.50;68.20;2.60;94653.00;;;;5070435;28;20184;-77
2024/01/17 06:27:51;;;;;;;7.03;5.07;;;4.50;68.50;2.70;94642.00;;;;5074063;28;20253;-77
2024/01/17 06:30:19;;;;;;;6.63;5.13;;;4.50;68.80;2.70;94635.00;;;;5070806;28;20216;-77
2024/01/17 06:32:46;;;;;;;6.53;5.07;;;4.50;68.90;2.70;94639.00;;;;5073941;28;20199;-77
2024/01/17 06:35:14;;;;;;;6.10;5.50;;;4.60;69.00;2.70;94627.00;;;;5073979;28;20748;-77
2024/01/17 06:37:41;;;;;;;6.10;5.50;;;4.60;69.30;2.80;94635.00;;;;5072317;28;20219;-77
2024/01/17 06:40:10;;;;;;;9.57;6.20;;;4.60;69.50;2.80;94631.00;;;;5073642;28;20298;-77
2024/01/17 06:42:38;;;;;;;6.47;5.50;;;4.60;70.30;2.80;94619.00;;;;5072670;28;20286;-78
2024/01/17 06:45:08;;;;;;;6.13;5.37;;;4.70;69.80;2.90;94625.00;;;;5072827;28;20274;-78
2024/01/17 06:47:35;;;;;;;8.47;5.70;;;4.70;70.00;2.90;94620.00;;;;5072663;28;20238;-78
2024/01/17 06:50:02;;;;;;;7.47;6.37;;;4.70;70.20;3.00;94618.00;;;;5073283;28;20234;-78
2024/01/17 06:52:29;;;;;;;5.87;5.33;;;4.80;70.20;3.00;94626.00;;;;5074496;28;20240;-78
2024/01/17 06:54:57;;;;;;;6.70;6.07;;;4.80;70.40;3.10;94614.00;;;;5066097;28;20196;-78
2024/01/17 06:57:24;;;;;;;6.40;5.77;;;4.80;70.50;3.10;94617.00;;;;5070446;28;20208;-78
2024/01/17 06:59:54;;;;;;;6.47;5.80;;;4.90;70.50;3.10;94617.00;;;;5070261;28;20204;-79
2024/01/17 07:02:23;;;;;;;7.93;5.97;;;4.90;70.60;3.20;94623.00;;;;5072067;28;20220;-79
2024/01/17 07:04:50;;;;;;;7.03;6.30;;;4.90;70.50;3.20;94617.00;;;;5069736;28;20677;-79
2024/01/17 07:07:17;;;;;;;6.00;5.23;;;5.00;70.70;3.30;94602.00;;;;5067892;28;20639;-79
2024/01/17 07:09:45;;;;;;;7.20;5.90;;;5.00;70.90;3.30;94600.00;;;;5070305;28;20212;-78
2024/01/17 07:12:12;;;;;;;8.50;5.97;;;5.00;71.20;3.40;94602.00;;;;5069501;28;20208;-79
2024/01/17 07:14:39;;;;;;;7.83;6.33;;;5.10;71.50;3.40;94597.00;;;;5072382;28;20187;-79
2024/01/17 07:17:08;;;;;;;6.43;5.83;;;5.20;71.70;3.40;94595.00;;;;5066145;28;20299;-79
2024/01/17 07:19:37;;;;;;;9.47;6.03;;;5.20;71.70;3.50;94583.00;;;;5074448;28;20208;-80
2024/01/17 07:22:06;;;;;;;8.33;6.07;;;5.30;71.80;3.50;94581.00;;;;5074390;28;20184;-80
2024/01/17 07:24:33;;;;;;;7.30;5.70;;;5.30;71.50;3.60;94579.00;;;;5068996;28;20192;-80
2024/01/17 07:27:01;;;;;;;8.10;6.37;;;5.40;71.60;3.70;94572.00;;;;5070026;28;20242;-80
2024/01/17 07:29:28;;;;;;;8.23;5.63;;;5.40;71.60;3.70;94571.00;;;;5068721;28;20223;-80
2024/01/17 07:31:56;;;;;;;7.23;5.60;;;5.50;71.70;3.70;94576.00;;;;5071161;28;20208;-80
2024/01/17 07:34:23;;;;;;;9.27;5.57;;;5.50;71.50;3.80;94556.00;;;;5070693;28;20192;-80
2024/01/17 07:36:53;;;;;;;8.77;5.93;;;5.60;71.60;3.80;94569.00;;;;5068093;28;20223;-80
2024/01/17 07:39:23;;;;;;;10.00;5.97;;;5.60;71.50;3.90;94547.00;;;;5073359;28;20219;-80
2024/01/17 07:41:55;;;;;;;6.93;5.83;;;5.60;71.50;3.90;94551.00;;;;5072230;28;20278;-81
2024/01/17 07:44:29;;;;;;;6.80;5.90;;;5.70;71.80;3.90;94548.00;;;;5074462;28;20215;-81
2024/01/17 07:46:56;;;;;;;12.13;6.70;;;5.70;71.80;4.00;94541.00;;;;5075241;28;20192;-81
2024/01/17 07:49:23;;;;;;;9.67;6.20;;;5.80;71.70;4.00;94540.00;;;;5074480;28;20265;-81
2024/01/17 07:51:52;;;;;;;6.43;5.70;;;5.80;72.00;4.00;94532.00;;;;5073518;28;20615;-81
2024/01/17 07:54:19;;;;;;;9.73;6.07;;;5.80;72.60;4.10;94533.00;;;;5074410;28;20214;-81
2024/01/17 07:56:46;;;;;;;8.70;5.97;;;5.90;71.80;4.10;94530.00;;;;5073993;28;20743;-81
2024/01/17 07:59:14;;;;;;;7.77;5.50;;;5.90;71.70;4.20;94527.00;;;;5073798;28;20203;-81
2024/01/17 08:01:41;;;;;;;8.00;5.27;;;5.90;71.60;4.20;94517.00;;;;5075709;28;20195;-81
2024/01/17 08:04:09;;;;;;;6.63;5.90;;;6.00;71.60;4.20;94513.00;;;;5071927;28;20672;-81
2024/01/17 08:06:36;;;;;;;8.77;4.93;;;6.00;71.60;4.30;94512.00;;;;5071420;28;20188;-81
2024/01/17 08:09:20;;;;;;;9.43;6.10;;;6.00;71.40;4.30;94513.00;;;;5072777;28;20239;-81
2024/01/17 08:11:47;;;;;;;8.10;5.17;;;6.10;71.50;4.40;94509.00;;;;5073831;28;20184;-81
2024/01/17 08:14:15;;;;;;;7.37;5.57;;;6.10;71.60;4.40;94499.00;;;;5071960;28;20544;-81
2024/01/17 08:16:42;;;;;;;8.17;6.73;;;6.10;71.80;4.40;94503.00;;;;5075306;28;20576;-81
2024/01/17 08:19:09;;;;;;;7.37;5.43;;;6.20;71.90;4.50;94491.00;;;;5078481;28;20215;-81
2024/01/17 08:21:37;;;;;;;7.43;5.20;;;6.20;72.00;4.50;94485.00;;;;5075508;28;20198;-82
2024/01/17 08:24:05;;;;;;;8.40;6.43;;;6.30;72.10;4.50;94480.00;;;;5077232;28;20208;-82
2024/01/17 08:26:33;;;;;;;9.13;6.80;;;6.40;72.30;4.60;94471.00;;;;5089164;28;20215;-83
2024/01/17 08:29:00;;;;;;;9.00;6.37;;;6.40;72.10;4.60;94477.00;;;;5091405;28;20207;-82
2024/01/17 08:31:29;;;;;;;10.77;7.07;;;6.40;72.00;4.70;94485.00;;;;5089826;28;20193;-83
2024/01/17 08:33:58;;;;;;;6.50;5.20;;;6.40;72.20;4.70;94476.00;;;;5088356;28;20192;-82
2024/01/17 08:36:29;;;;;;;7.07;4.93;;;6.50;72.20;4.80;94462.00;;;;5086492;28;20192;-83
2024/01/17 08:38:57;;;;;;;5.73;4.10;;;6.50;72.30;4.80;94455.00;;;;5087604;28;20467;-83
2024/01/17 08:41:26;;;;;;;6.77;4.10;;;6.60;72.40;4.90;94465.00;;;;5077467;28;20202;-82
2024/01/17 08:43:57;;;;;;;7.80;4.50;;;6.60;73.10;5.00;94464.00;;;;5074253;28;20198;-83
2024/01/17 08:46:25;;;;;;;6.17;4.17;;;6.70;72.30;5.00;94462.00;;;;5078086;28;20203;-83
2024/01/17 08:48:52;;;;;;;4.10;3.70;;;6.70;72.20;5.10;94467.00;;;;5076169;28;20223;-83
2024/01/17 08:51:21;;;;;;;4.70;4.13;;;6.80;72.30;5.20;94460.00;;;;5078099;28;20250;-83
2024/01/17 08:53:52;;;;;;;6.20;4.50;;;6.90;72.30;5.20;94460.00;;;;5079204;28;20184;-83
2024/01/17 08:56:19;;;;;;;5.63;4.80;;;6.90;72.30;5.30;94458.00;;;;5078273;28;20180;-83
2024/01/17 08:58:56;;;;;;;5.03;4.50;;;7.00;72.10;5.30;94458.00;;;;5077393;28;20224;-83
2024/01/17 09:01:27;;;;;;;6.30;5.20;;;7.00;72.20;5.40;94445.00;;;;5077824;28;20259;-83
2024/01/17 09:03:57;;;;;;;5.73;4.97;;;7.00;72.30;5.40;94439.00;;;;5079155;28;20711;-82
2024/01/17 09:06:25;;;;;;;5.17;4.67;;;7.10;72.30;5.50;94444.00;;;;5078306;28;20192;-83
2024/01/17 09:08:56;;;;;;;5.30;4.50;;;7.10;72.30;5.50;94437.00;;;;5079586;28;20223;-83
2024/01/17 09:11:24;;;;;;;7.83;4.70;;;7.20;72.10;5.50;94439.00;;;;5083334;28;20267;-83
2024/01/17 09:13:55;;;;;;;8.70;4.87;;;7.20;72.10;5.60;94444.00;;;;5080889;28;20176;-83
2024/01/17 09:16:23;;;;;;;7.10;4.00;;;7.20;72.00;5.70;94440.00;;;;5081528;28;20563;-83
2024/01/17 09:18:50;;;;;;;9.50;6.53;;;7.30;72.20;5.70;94437.00;;;;5083061;28;20211;-83
2024/01/17 09:21:21;;;;;;;11.87;6.27;;;7.40;72.00;5.70;94434.00;;;;5082966;28;20192;-83
2024/01/17 09:23:49;;;;;;;5.43;4.47;;;7.40;71.90;5.70;94436.00;;;;5080240;28;20671;-83
2024/01/17 09:26:17;;;;;;;10.70;5.37;;;7.60;72.00;5.70;94435.00;;;;5079081;28;20242;-83
2024/01/17 09:28:44;;;;;;;6.77;5.27;;;7.90;72.30;5.80;94434.00;;;;5078017;28;20223;-85
2024/01/17 09:31:14;;;;;;;7.63;4.50;;;7.40;72.60;5.80;94435.00;;;;5075610;28;20215;-84
2024/01/17 09:33:41;;;;;;;5.83;4.37;;;7.50;72.00;5.80;94433.00;;;;5075895;28;20193;-84
2024/01/17 09:36:09;;;;;;;6.00;3.83;;;7.40;71.70;5.80;94432.00;;;;5077414;28;20188;-84
2024/01/17 09:38:36;;;;;;;6.67;4.70;;;7.50;71.70;5.80;94424.00;;;;5075008;28;20215;-84
2024/01/17 09:41:04;;;;;;;13.37;4.37;;;7.50;71.60;5.80;94423.00;;;;5054384;28;20196;-85
2024/01/17 09:43:32;;;;;;;5.77;4.53;;;7.40;71.20;5.80;94410.00;;;;5070447;28;20249;-86
2024/01/17 09:46:11;;;;;;;5.07;3.60;;;7.50;71.30;5.80;94408.00;;;;5076518;28;20189;-84
2024/01/17 09:48:41;;;;;;;5.70;4.40;;;7.50;71.70;5.80;94406.00;;;;5078517;28;20211;-84
2024/01/17 09:51:11;;;;;;;6.20;3.90;;;7.50;71.60;5.80;94405.00;;;;5075229;28;20215;-86
2024/01/17 09:53:47;;;;;;;3.77;3.43;;;7.40;71.60;5.80;94397.00;;;;5076957;28;20188;-86
2024/01/17 09:56:16;;;;;;;4.77;3.63;;;7.80;72.00;5.80;94396.00;;;;5076893;28;20204;-84
2024/01/17 09:58:48;;;;;;;4.00;3.60;;;7.50;71.90;5.80;94397.00;;;;5085425;28;20284;-84
2024/01/17 10:01:21;;;;;;;5.43;4.10;;;7.50;71.90;5.70;94389.00;;;;5073204;28;20228;-84
2024/01/17 10:03:54;;;;;;;3.67;3.00;;;7.50;71.80;5.70;94383.00;;;;5080253;28;20193;-84
2024/01/17 10:06:24;;;;;;;4.33;3.53;;;7.50;71.80;5.60;94380.00;;;;5079855;28;20562;-85
2024/01/17 10:08:53;;;;;;;4.53;3.57;;;7.70;71.90;5.60;94372.00;;;;5082891;28;20220;-85
2024/01/17 10:11:22;;;;;;;3.50;3.20;;;7.40;71.80;5.60;94370.00;;;;5079672;28;20191;-84
2024/01/17 10:13:49;;;;;;;5.23;2.93;;;7.40;72.10;5.60;94364.00;;;;5076344;28;20271;-85
2024/01/17 10:16:16;;;;;;;2.80;2.60;;;7.60;72.60;5.60;94361.00;;;;5089078;28;20197;-86
2024/01/17 10:18:44;;;;;;;4.03;2.67;;;7.30;72.60;5.60;94360.00;;;;5091369;28;20223;-86
2024/01/17 10:21:18;;;;;;;2.67;2.40;;;7.30;72.90;5.60;94344.00;;;;5076892;28;20204;-86
2024/01/17 10:23:46;;;;;;;4.83;3.30;;;7.30;73.20;5.60;94336.00;;;;5073556;28;20258;-86
2024/01/17 10:26:13;;;;;;;3.77;3.37;;;7.40;73.30;5.60;94339.00;;;;5068594;28;20364;-86
2024/01/17 10:28:40;;;;;;;3.67;3.37;;;7.30;73.30;5.60;94334.00;;;;5076319;28;20219;-87
2024/01/17 10:31:07;;;;;;;4.67;3.20;;;7.30;73.20;5.60;94329.00;;;;5074857;28;20215;-83
2024/01/17 10:33:35;;;;;;;3.77;3.10;;;7.30;73.30;5.60;94324.00;;;;5075737;28;20196;-85
2024/01/17 10:36:03;;;;;;;4.00;3.70;;;7.30;73.40;5.50;94316.00;;;;5077354;28;20215;-86
2024/01/17 10:38:35;;;;;;;3.90;3.60;;;7.30;73.60;5.50;94312.00;;;;5076863;28;20250;-85
2024/01/17 10:41:07;;;;;;;4.13;3.83;;;7.30;73.80;5.50;94313.00;;;;5073416;28;20211;-85
2024/01/17 10:43:35;;;;;;;5.73;3.90;;;7.30;74.00;5.50;94314.00;;;;5076619;28;20196;-84
2024/01/17 10:46:10;;;;;;;5.37;3.50;;;7.30;74.00;5.40;94316.00;;;;5077380;28;20211;-84
2024/01/17 10:48:38;;;;;;;4.07;3.23;;;7.20;74.10;5.40;94303.00;;;;5079080;28;20220;-86
2024/01/17 10:51:07;;;;;;;3.80;3.10;;;7.30;74.20;5.40;94296.00;;;;5079662;28;20607;-86
2024/01/17 10:53:36;;;;;;;5.90;3.93;;;7.20;74.30;5.30;94294.00;;;;5078649;28;20219;-84
2024/01/17 10:56:04;;;;;;;7.87;6.27;;;7.20;74.40;5.30;94290.00;;;;5079437;28;20702;-84
2024/01/17 10:58:35;;;;;;;8.23;5.17;;;7.20;74.60;5.30;94290.00;;;;5076016;28;20235;-85
2024/01/17 11:01:14;;;;;;;5.30;4.30;;;7.20;75.50;5.30;94274.00;;;;5058459;28;20593;-83
2024/01/17 11:03:45;;;;;;;5.27;4.77;;;7.10;75.10;5.30;94261.00;;;;5074775;28;20766;-85
2024/01/17 11:06:25;;;;;;;4.50;4.10;;;7.20;75.30;5.30;94250.00;;;;5094655;28;20653;-87
2024/01/17 11:08:58;;;;;;;4.63;3.77;;;7.10;75.60;5.30;94218.00;;;;5075148;28;20264;-84
2024/01/17 11:11:26;;;;;;;4.70;4.30;;;7.10;75.80;5.40;94227.00;;;;5076963;28;20195;-83